Wilson Heron — 9HJW9 — position and weather

sailwx.info

Track history (hours):
 
Tides and Currents Weather Stations Pressure Air Temp Water Temp Dewpoint Dewpoint Depression Visibility Wind Speed Wind Dir Waves Ship Positions

Wilson Heron

Last reported at 2014-Nov-06 10:15 UTC. Time now 2014-Nov-21 16:43 UTC.
Position N 54°42' E 020°27'.
Warning: this ship's position is 15 days out of date.

Length 91 m; draft 5.7 m.

Type: Cargo ship. MMSI: 249075000.

Date/timePositionNaut miles runAvg speedWind from/ knotsBaromVisibWave heightAir tempDewpointWater temp
2014-Nov-06 10:15N 54°42' E 020°27'0 0.0
2014-Nov-06 09:24N 54°42' E 020°27'  
2014-Nov-04 02:25N 54°42' E 020°28'2 1.8
2014-Nov-04 01:23N 54°42' E 020°25'14 7.6
2014-Nov-03 23:33N 54°38' E 020°02'7 7.3
2014-Nov-03 22:34N 54°40' E 019°49'1 0.7
2014-Nov-03 21:29N 54°39' E 019°48'0 0.0
2014-Nov-03 20:32N 54°39' E 019°48'0 0.0
2014-Nov-03 19:11N 54°39' E 019°48'0 0.0
2014-Nov-03 19:05N 54°39' E 019°48'0 0.0
2014-Nov-03 18:32N 54°39' E 019°48'0 0.0
2014-Nov-03 18:11N 54°39' E 019°48'0 0.0
2014-Nov-03 17:50N 54°39' E 019°48'0 0.0
2014-Nov-03 17:32N 54°39' E 019°48'1 0.8
2014-Nov-03 16:34N 54°40' E 019°47'18 8.8
2014-Nov-03 14:34N 54°48' E 019°20'9 9.1
2014-Nov-03 13:33N 54°51' E 019°05'9 8.9
2014-Nov-03 12:34N 54°54' E 018°50'9 8.9
2014-Nov-03 11:33N 54°57' E 018°36'9 8.7
2014-Nov-03 10:33N 54°59' E 018°21'9 8.8
2014-Nov-03 09:34N 54°59' E 018°06'9 8.9
2014-Nov-03 08:33N 54°59' E 017°50'82 8.9
2014-Nov-02 23:16N 54°56' E 015°27'7 8.8
2014-Nov-02 22:29N 54°56' E 015°15'8 9.0
2014-Nov-02 21:34N 54°56' E 015°00'9 9.1
2014-Nov-02 20:33N 54°57' E 014°45'9 8.9
2014-Nov-02 19:34N 55°01' E 014°31'9 9.1
2014-Nov-02 18:33N 55°06' E 014°17'47 8.8
2014-Nov-02 13:14N 55°15' E 012°56'6 8.7
2014-Nov-02 12:33N 55°16' E 012°46'7 6.9
2014-Nov-02 11:34N 55°22' E 012°39'9 8.8
2014-Nov-02 10:34N 55°31' E 012°42'9 9.4
2014-Nov-02 09:34N 55°40' E 012°41'9 9.1
2014-Nov-02 08:34N 55°49' E 012°41'9 9.1
2014-Nov-02 07:34N 55°58' E 012°38'8 8.1
2014-Nov-02 06:34N 56°06' E 012°33'10 9.9
2014-Nov-02 05:33N 56°11' E 012°19'9 9.0
2014-Nov-02 04:34N 56°17' E 012°06'9 8.7
2014-Nov-02 03:33N 56°25' E 012°00'11 9.1
2014-Nov-02 02:19N 56°36' E 011°56'7 8.8
2014-Nov-02 01:33N 56°42' E 011°53'9 9.4
2014-Nov-02 00:34N 56°51' E 011°48'9 9.1
2014-Nov-01 23:34N 56°60' E 011°43'12 9.2
2014-Nov-01 22:14N 57°11' E 011°35'6 9.2
2014-Nov-01 21:33N 57°17' E 011°31'9 9.2
2014-Nov-01 20:33N 57°26' E 011°25'9 8.6
2014-Nov-01 19:34N 57°31' E 011°12'9 8.9
2014-Nov-01 18:33N 57°35' E 010°58'9 8.9
2014-Nov-01 17:34N 57°40' E 010°44'5 5.2
2014-Nov-01 16:33N 57°43' E 010°36'0 0.0
2014-Nov-01 15:32N 57°43' E 010°36'0 0.1
2014-Nov-01 14:33N 57°43' E 010°36'4 3.9
2014-Nov-01 13:33N 57°43' E 010°43'6 6.4
2014-Nov-01 12:33N 57°47' E 010°33'10 9.5
2014-Nov-01 11:33N 57°47' E 010°15'10 9.6
2014-Nov-01 10:28N 57°48' E 009°56'9 9.6
2014-Nov-01 09:33N 57°49' E 009°39'13 9.8
2014-Nov-01 08:15N 57°50' E 009°16'1210.3
2014-Nov-01 07:04N 57°51' E 008°53'5 9.6
2014-Nov-01 06:32N 57°52' E 008°43'72 8.6
2014-Oct-31 22:09N 58°08' E 006°30'610.2
2014-Oct-31 21:33N 58°14' E 006°25'8 0.5
2014-Oct-31 04:33N 58°18' E 006°13'2 2.0
2014-Oct-31 03:33N 58°17' E 006°11'4 4.2
2014-Oct-31 02:33N 58°14' E 006°16'66 8.3
2014-Oct-30 18:33N 57°60' E 008°18'9 9.2
2014-Oct-30 17:33N 58°03' E 008°34'10 9.6
2014-Oct-30 16:33N 58°11' E 008°46'1010.2
2014-Oct-30 15:33N 58°19' E 008°58'53 8.8
2014-Oct-30 09:32N 59°08' E 009°37'0 0.0
2014-Oct-30 08:26N 59°08' E 009°37'0 0.0
2014-Oct-30 06:29N 59°08' E 009°37'0 0.0
2014-Oct-30 05:32N 59°08' E 009°37'0 0.0
2014-Oct-30 04:17N 59°08' E 009°37'0 0.0
2014-Oct-30 03:17N 59°08' E 009°37'0 0.0
2014-Oct-30 02:32N 59°08' E 009°37'0 0.0
2014-Oct-30 00:17N 59°08' E 009°37'0 0.0
2014-Oct-29 23:17N 59°08' E 009°37'0 0.0
2014-Oct-29 22:23N 59°08' E 009°37'1 0.3
2014-Oct-29 18:17N 59°07' E 009°36'6 8.0
2014-Oct-29 17:33N 59°02' E 009°43'11 3.5
2014-Oct-29 14:29N 58°52' E 009°44'112 7.0
2014-Oct-28 22:33N 58°05' E 006°28'10 9.8
2014-Oct-28 21:33N 58°12' E 006°14'9 9.1
2014-Oct-28 20:33N 58°18' E 006°02'9 8.8
2014-Oct-28 19:33N 58°24' E 005°49'8 8.5
2014-Oct-28 18:33N 58°30' E 005°38'20 8.4
2014-Oct-28 16:14N 58°46' E 005°17'5 7.3
2014-Oct-28 15:34N 58°50' E 005°12'7 6.7
2014-Oct-28 14:33N 58°56' E 005°05'6 6.0
2014-Oct-28 13:32N 59°02' E 004°60'  
Track history (hours):
 
Tides and Currents Weather Stations Pressure Air Temp Water Temp Dewpoint Dewpoint Depression Visibility Wind Speed Wind Dir Waves Ship Positions

Wilson Heron

Last reported at 2014-Nov-06 10:15 UTC. Time now 2014-Nov-21 16:43 UTC.
Position N 54°42' E 020°27'.
Warning: this ship's position is 15 days out of date.

Length 91 m; draft 5.7 m.

Type: Cargo ship. MMSI: 249075000.

Date/timePositionNaut miles runAvg speedWind from/ knotsBaromVisibWave heightAir tempDewpointWater temp
2014-Nov-06 10:15N 54°42' E 020°27'0 0.0
2014-Nov-06 09:24N 54°42' E 020°27'  
2014-Nov-04 02:25N 54°42' E 020°28'2 1.8
2014-Nov-04 01:23N 54°42' E 020°25'14 7.6
2014-Nov-03 23:33N 54°38' E 020°02'7 7.3
2014-Nov-03 22:34N 54°40' E 019°49'1 0.7
2014-Nov-03 21:29N 54°39' E 019°48'0 0.0
2014-Nov-03 20:32N 54°39' E 019°48'0 0.0
2014-Nov-03 19:11N 54°39' E 019°48'0 0.0
2014-Nov-03 19:05N 54°39' E 019°48'0 0.0
2014-Nov-03 18:32N 54°39' E 019°48'0 0.0
2014-Nov-03 18:11N 54°39' E 019°48'0 0.0
2014-Nov-03 17:50N 54°39' E 019°48'0 0.0
2014-Nov-03 17:32N 54°39' E 019°48'1 0.8
2014-Nov-03 16:34N 54°40' E 019°47'18 8.8
2014-Nov-03 14:34N 54°48' E 019°20'9 9.1
2014-Nov-03 13:33N 54°51' E 019°05'9 8.9
2014-Nov-03 12:34N 54°54' E 018°50'9 8.9
2014-Nov-03 11:33N 54°57' E 018°36'9 8.7
2014-Nov-03 10:33N 54°59' E 018°21'9 8.8
2014-Nov-03 09:34N 54°59' E 018°06'9 8.9
2014-Nov-03 08:33N 54°59' E 017°50'82 8.9
2014-Nov-02 23:16N 54°56' E 015°27'7 8.8
2014-Nov-02 22:29N 54°56' E 015°15'8 9.0
2014-Nov-02 21:34N 54°56' E 015°00'9 9.1
2014-Nov-02 20:33N 54°57' E 014°45'9 8.9
2014-Nov-02 19:34N 55°01' E 014°31'9 9.1
2014-Nov-02 18:33N 55°06' E 014°17'47 8.8
2014-Nov-02 13:14N 55°15' E 012°56'6 8.7
2014-Nov-02 12:33N 55°16' E 012°46'7 6.9
2014-Nov-02 11:34N 55°22' E 012°39'9 8.8
2014-Nov-02 10:34N 55°31' E 012°42'9 9.4
2014-Nov-02 09:34N 55°40' E 012°41'9 9.1
2014-Nov-02 08:34N 55°49' E 012°41'9 9.1
2014-Nov-02 07:34N 55°58' E 012°38'8 8.1
2014-Nov-02 06:34N 56°06' E 012°33'10 9.9
2014-Nov-02 05:33N 56°11' E 012°19'9 9.0
2014-Nov-02 04:34N 56°17' E 012°06'9 8.7
2014-Nov-02 03:33N 56°25' E 012°00'11 9.1
2014-Nov-02 02:19N 56°36' E 011°56'7 8.8
2014-Nov-02 01:33N 56°42' E 011°53'9 9.4
2014-Nov-02 00:34N 56°51' E 011°48'9 9.1
2014-Nov-01 23:34N 56°60' E 011°43'12 9.2
2014-Nov-01 22:14N 57°11' E 011°35'6 9.2
2014-Nov-01 21:33N 57°17' E 011°31'9 9.2
2014-Nov-01 20:33N 57°26' E 011°25'9 8.6
2014-Nov-01 19:34N 57°31' E 011°12'9 8.9
2014-Nov-01 18:33N 57°35' E 010°58'9 8.9
2014-Nov-01 17:34N 57°40' E 010°44'5 5.2
2014-Nov-01 16:33N 57°43' E 010°36'0 0.0
2014-Nov-01 15:32N 57°43' E 010°36'0 0.1
2014-Nov-01 14:33N 57°43' E 010°36'4 3.9
2014-Nov-01 13:33N 57°43' E 010°43'6 6.4
2014-Nov-01 12:33N 57°47' E 010°33'10 9.5
2014-Nov-01 11:33N 57°47' E 010°15'10 9.6
2014-Nov-01 10:28N 57°48' E 009°56'9 9.6
2014-Nov-01 09:33N 57°49' E 009°39'13 9.8
2014-Nov-01 08:15N 57°50' E 009°16'1210.3
2014-Nov-01 07:04N 57°51' E 008°53'5 9.6
2014-Nov-01 06:32N 57°52' E 008°43'72 8.6
2014-Oct-31 22:09N 58°08' E 006°30'610.2
2014-Oct-31 21:33N 58°14' E 006°25'8 0.5
2014-Oct-31 04:33N 58°18' E 006°13'2 2.0
2014-Oct-31 03:33N 58°17' E 006°11'4 4.2
2014-Oct-31 02:33N 58°14' E 006°16'66 8.3
2014-Oct-30 18:33N 57°60' E 008°18'9 9.2
2014-Oct-30 17:33N 58°03' E 008°34'10 9.6
2014-Oct-30 16:33N 58°11' E 008°46'1010.2
2014-Oct-30 15:33N 58°19' E 008°58'53 8.8
2014-Oct-30 09:32N 59°08' E 009°37'0 0.0
2014-Oct-30 08:26N 59°08' E 009°37'0 0.0
2014-Oct-30 06:29N 59°08' E 009°37'0 0.0
2014-Oct-30 05:32N 59°08' E 009°37'0 0.0
2014-Oct-30 04:17N 59°08' E 009°37'0 0.0
2014-Oct-30 03:17N 59°08' E 009°37'0 0.0
2014-Oct-30 02:32N 59°08' E 009°37'0 0.0
2014-Oct-30 00:17N 59°08' E 009°37'0 0.0
2014-Oct-29 23:17N 59°08' E 009°37'0 0.0
2014-Oct-29 22:23N 59°08' E 009°37'1 0.3
2014-Oct-29 18:17N 59°07' E 009°36'6 8.0
2014-Oct-29 17:33N 59°02' E 009°43'11 3.5
2014-Oct-29 14:29N 58°52' E 009°44'112 7.0
2014-Oct-28 22:33N 58°05' E 006°28'10 9.8
2014-Oct-28 21:33N 58°12' E 006°14'9 9.1
2014-Oct-28 20:33N 58°18' E 006°02'9 8.8
2014-Oct-28 19:33N 58°24' E 005°49'8 8.5
2014-Oct-28 18:33N 58°30' E 005°38'20 8.4
2014-Oct-28 16:14N 58°46' E 005°17'5 7.3
2014-Oct-28 15:34N 58°50' E 005°12'7 6.7
2014-Oct-28 14:33N 58°56' E 005°05'6 6.0
2014-Oct-28 13:32N 59°02' E 004°60'  

Dump ship's entire track history